航空気象通報

ウインドサーファーのための航空気象通報による風予報です。

6/18-6/20の航空気象通報

2017年06月18日 21時54分35秒 | TAF
羽田空港
TAF RJTT 181105Z 1812/1918 01022KT 9999 FEW015 BKN030
BECMG 1900/1903 01010KT
BECMG 1906/1909 17010KT
日本時間18日21時-19日09時:010度から22ノットの風
09-12時:風が変化
12-15時:010度から10ノットの風
15-18時:風が変化
18時-20日03時:170度から10ノットの風


静岡空港
TAF RJNS 181106Z 1812/1918 27004KT 9999 FEW020 BKN070
BECMG 1900/1903 14012KT
BECMG 1912/1915 36006KT
TEMPO 1912/1918 4000 BR FEW005 BKN008
日本時間18日21時-19日09時:270度から4ノットの風
09-12時:風が変化
12-21時:140度から12ノットの風
21-24時:風が変化
20日00-03時:360度から6ノットの風


福岡空港
TAF RJFF 181110Z 1812/1918 31005KT 9999 FEW030
BECMG 1812/1814 16012KT
BECMG 1900/1903 32010KT
BECMG 1912/1915 15007KT
日本時間18日21時:310度から5ノットの風
21-23時:風が変化
23時-19日09時:160度から12ノットの風
09-12時:風が変化
12-21時:320度から10ノットの風
21-24時:風が変化
20日00-03時:150度から7ノットの風


那覇空港
TAF ROAH 181107Z 1812/1918 12008KT 9999 FEW010 BKN035
TEMPO 1815/1818 4000 RA
TEMPO 1821/1906 4000 SHRA FEW006 BKN008 FEW020CB
TEMPO 1906/1918 2000 +TSRA FEW006 BKN008 SCT020CB
BECMG 1912/1915 19015KT
日本時間18日21時-19日21時:120度から8ノットの風
21-24時:風が変化
20日00-03時:190度から15ノットの風

但し、19日00-03時の間:ときどき
但し、19日06-15時の間:ときどき
19日15時-20日03時の間:ときどき

石垣空港
TAF ROIG 181109Z 1812/1918 17013KT 9999 FEW006 BKN015
TEMPO 1821/1900 -TSRA FEW008 BKN015 FEW020CB
TEMPO 1900/1903 3000 TSRA FEW005 BKN008 FEW020CB
TEMPO 1903/1912 -TSRA FEW008 BKN015 FEW020CB
TEMPO 1912/1918 3000 TSRA FEW005 BKN008 FEW020CB
日本時間18日21時-20日03時:170度から13ノットの風

但し、19日06時-20日03時の間:ときどき

マウイのカフルイ空港
PHOG 181120Z 1812/1912 06010KT P6SM FEW040
FM182000 06017G25KT P6SM FEW025 SCT050
FM190500 05009KT P6SM FEW030 AMD LTD TO VIS AND WIND TIL 181600
ハワイ時間18日02-10時:060度から10ノットの風
10-19時:060度から17ノット、突風25ノット
19時-19日02時:050度から9ノットの風


サイパン空港
TAF PGSN 181140Z 1812/1912 11008KT P6SM VCSH SCT025 BKN110
マリアナ時間18日22時-19日22時:110度から8ノットの風

ジャンル:
お天気
コメント   この記事についてブログを書く
この記事をはてなブックマークに追加
« 6/17-6/19の航空気象通報 | トップ | 6/19-6/21の航空気象通報 »
最近の画像もっと見る

コメントを投稿

ブログ作成者から承認されるまでコメントは反映されません。

コメント利用規約に同意の上コメント投稿を行ってください。

数字4桁を入力し、投稿ボタンを押してください。

あわせて読む

トラックバック

この記事のトラックバック  Ping-URL
ブログ作成者から承認されるまでトラックバックは反映されません。
  • 30日以上前の記事に対するトラックバックは受け取らないよう設定されております。
  • 送信元の記事内容が半角英数のみのトラックバックは受け取らないよう設定されております。
  • このブログへのリンクがない記事からのトラックバックは受け取らないよう設定されております。
  • ※ブログ管理者のみ、編集画面で設定の変更が可能です。